createdAt,value
2019-03-09T00:01:31.886Z,11.50
2019-03-09T00:04:01.727Z,11.56
2019-03-09T00:06:31.300Z,11.59
2019-03-09T00:09:00.830Z,11.63
2019-03-09T00:11:30.481Z,11.63
2019-03-09T00:14:00.032Z,11.59
2019-03-09T00:16:29.584Z,11.54
2019-03-09T00:18:59.130Z,11.52
2019-03-09T00:21:28.686Z,11.49
2019-03-09T00:24:22.988Z,11.41
2019-03-09T00:26:59.902Z,11.39
2019-03-09T00:29:48.288Z,11.27
2019-03-09T00:32:19.748Z,11.22
2019-03-09T00:34:49.372Z,11.21
2019-03-09T00:37:18.918Z,11.26
2019-03-09T00:39:48.479Z,11.29
2019-03-09T00:42:18.040Z,11.27
2019-03-09T00:44:47.600Z,11.38
2019-03-09T00:47:17.392Z,11.43
2019-03-09T00:49:46.941Z,11.47
2019-03-09T00:52:16.483Z,11.51
2019-03-09T00:54:46.042Z,11.58
2019-03-09T00:57:15.575Z,11.57
2019-03-09T00:59:45.116Z,11.52
2019-03-09T01:02:14.688Z,11.57
2019-03-09T01:04:44.218Z,11.51
2019-03-09T01:07:13.785Z,11.37
2019-03-09T01:09:43.499Z,11.18
2019-03-09T01:12:13.088Z,10.98
2019-03-09T01:14:42.626Z,10.84
2019-03-09T01:17:12.331Z,10.68
2019-03-09T01:19:41.904Z,10.51
2019-03-09T01:22:11.443Z,10.38
2019-03-09T01:24:41.009Z,10.24
2019-03-09T01:27:10.613Z,10.18
2019-03-09T01:29:40.148Z,10.14
2019-03-09T01:32:09.708Z,10.08
2019-03-09T01:34:39.242Z,9.99
2019-03-09T01:37:08.826Z,9.97
2019-03-09T01:39:38.366Z,9.94
2019-03-09T01:42:07.920Z,9.96
2019-03-09T01:44:37.495Z,9.95
2019-03-09T01:47:07.058Z,9.95
2019-03-09T01:49:36.621Z,9.91
2019-03-09T01:52:06.166Z,9.91
2019-03-09T01:54:35.711Z,9.93
2019-03-09T01:57:05.260Z,9.92
2019-03-09T01:59:34.819Z,9.93
2019-03-09T02:02:04.387Z,9.89
2019-03-09T02:04:33.931Z,9.90
2019-03-09T02:07:03.452Z,9.88
2019-03-09T02:09:33.088Z,9.91
2019-03-09T02:12:02.631Z,9.91
2019-03-09T02:14:32.191Z,9.91
2019-03-09T02:17:01.720Z,9.90
2019-03-09T02:19:31.261Z,9.91
2019-03-09T02:22:00.809Z,9.91
2019-03-09T02:24:30.353Z,9.94
2019-03-09T02:26:59.899Z,9.96
2019-03-09T02:29:29.464Z,9.97
2019-03-09T02:31:58.996Z,10.00
2019-03-09T02:34:28.570Z,9.99
2019-03-09T02:36:58.130Z,10.01
2019-03-09T02:39:32.876Z,10.02
2019-03-09T02:42:02.409Z,10.06
2019-03-09T02:44:32.092Z,10.09
2019-03-09T02:47:01.636Z,10.05
2019-03-09T02:49:31.254Z,10.06
2019-03-09T02:52:00.879Z,10.07
2019-03-09T02:54:30.440Z,10.08
2019-03-09T02:57:00.008Z,10.08
2019-03-09T02:59:29.544Z,10.10
2019-03-09T03:02:20.894Z,10.11
2019-03-09T03:04:50.494Z,10.10
2019-03-09T03:07:20.044Z,10.04
2019-03-09T03:09:49.582Z,10.00
2019-03-09T03:12:19.137Z,9.96
2019-03-09T03:14:48.677Z,9.92
2019-03-09T03:17:18.231Z,9.86
2019-03-09T03:19:47.798Z,9.78
2019-03-09T03:22:17.483Z,9.65
2019-03-09T03:24:47.035Z,9.55
2019-03-09T03:27:16.570Z,9.43
2019-03-09T03:29:46.126Z,9.39
2019-03-09T03:32:15.681Z,9.31
2019-03-09T03:34:45.219Z,9.31
2019-03-09T03:37:14.813Z,9.30
2019-03-09T03:39:44.360Z,9.25
2019-03-09T03:42:13.984Z,9.23
2019-03-09T03:44:46.799Z,9.23
2019-03-09T03:47:17.385Z,9.26
2019-03-09T03:49:46.935Z,9.26
2019-03-09T03:52:16.461Z,9.22
2019-03-09T03:54:45.988Z,9.22
2019-03-09T03:57:15.542Z,9.22
2019-03-09T03:59:45.084Z,9.21
2019-03-09T04:02:14.703Z,9.25
2019-03-09T04:04:44.250Z,9.25
2019-03-09T04:07:13.914Z,9.21
2019-03-09T04:09:43.437Z,9.18
2019-03-09T04:12:12.992Z,9.10
2019-03-09T04:14:42.524Z,9.06
2019-03-09T04:17:12.113Z,9.06
2019-03-09T04:19:41.785Z,9.10
2019-03-09T04:22:11.359Z,9.11
2019-03-09T04:24:41.015Z,9.09
2019-03-09T04:27:10.853Z,9.06
2019-03-09T04:29:40.405Z,9.04
2019-03-09T04:32:10.128Z,8.96
2019-03-09T04:34:39.652Z,8.93
2019-03-09T04:37:09.207Z,8.92
2019-03-09T04:39:38.768Z,8.94
2019-03-09T04:42:08.300Z,8.94
2019-03-09T04:44:37.879Z,8.89
2019-03-09T04:47:07.455Z,8.91
2019-03-09T04:49:37.087Z,8.99
2019-03-09T04:52:06.809Z,8.99
2019-03-09T04:54:36.507Z,8.99
2019-03-09T04:57:06.168Z,9.05
2019-03-09T04:59:35.704Z,9.11
2019-03-09T05:02:05.248Z,9.20
2019-03-09T05:04:43.064Z,9.29
2019-03-09T05:07:15.236Z,9.38
2019-03-09T05:10:01.061Z,9.49
2019-03-09T05:12:30.840Z,9.62
2019-03-09T05:15:00.373Z,9.67
2019-03-09T05:17:29.960Z,9.79
2019-03-09T05:19:59.497Z,9.85
2019-03-09T05:22:29.025Z,10.02
2019-03-09T05:24:58.604Z,10.09
2019-03-09T05:27:28.171Z,10.21
2019-03-09T05:29:57.807Z,10.32
2019-03-09T05:32:27.443Z,10.41
2019-03-09T05:34:57.162Z,10.51
2019-03-09T05:37:26.753Z,10.58
2019-03-09T05:39:56.401Z,10.69
2019-03-09T05:42:26.179Z,10.82
2019-03-09T05:44:55.801Z,11.02
2019-03-09T05:47:25.600Z,11.24
2019-03-09T05:49:56.371Z,11.49
2019-03-09T05:52:43.350Z,11.74
2019-03-09T05:55:18.522Z,11.95
2019-03-09T05:57:48.211Z,12.16
2019-03-09T06:00:18.325Z,12.40
2019-03-09T06:02:48.040Z,12.74
2019-03-09T06:05:35.454Z,12.92
2019-03-09T06:08:05.192Z,13.27
2019-03-09T06:10:34.735Z,13.93
2019-03-09T06:13:04.325Z,14.72
2019-03-09T06:15:33.920Z,15.65
2019-03-09T06:18:03.606Z,16.31
2019-03-09T06:20:33.165Z,16.68
2019-03-09T06:23:02.828Z,17.50
2019-03-09T06:25:32.517Z,17.89
2019-03-09T06:28:02.143Z,18.32
2019-03-09T06:30:31.832Z,18.94
2019-03-09T06:33:36.134Z,19.25
2019-03-09T06:36:18.474Z,19.56
2019-03-09T06:38:59.778Z,19.81
2019-03-09T06:41:33.591Z,20.11
2019-03-09T06:44:03.243Z,20.31
2019-03-09T06:46:32.881Z,20.50
2019-03-09T06:49:02.538Z,20.52
2019-03-09T06:51:32.190Z,20.54
2019-03-09T06:54:01.810Z,21.60
2019-03-09T06:56:31.403Z,22.37
2019-03-09T06:59:00.965Z,22.38
2019-03-09T07:01:30.622Z,22.28
2019-03-09T07:04:00.336Z,22.24
2019-03-09T07:06:29.986Z,22.24
2019-03-09T07:08:59.577Z,21.41
2019-03-09T07:11:29.118Z,20.96
2019-03-09T07:14:19.232Z,20.89
2019-03-09T07:16:48.760Z,20.68
2019-03-09T07:19:18.487Z,20.56
2019-03-09T07:21:48.157Z,20.33
2019-03-09T07:24:17.797Z,20.39
2019-03-09T07:26:47.556Z,20.44
2019-03-09T07:29:17.327Z,20.54
2019-03-09T07:31:46.908Z,20.74
2019-03-09T07:34:26.586Z,20.51
2019-03-09T07:36:56.251Z,20.70
2019-03-09T07:39:26.002Z,20.66
2019-03-09T07:41:55.604Z,20.13
2019-03-09T07:44:25.383Z,20.50
2019-03-09T07:46:55.036Z,20.08
2019-03-09T07:49:24.803Z,19.91
2019-03-09T07:51:54.442Z,20.11
2019-03-09T07:54:24.019Z,20.29
2019-03-09T07:56:53.574Z,20.16
2019-03-09T07:59:23.146Z,20.37
2019-03-09T08:01:52.828Z,20.04
2019-03-09T08:04:22.446Z,19.83
2019-03-09T08:06:51.999Z,19.88
2019-03-09T08:09:21.553Z,20.10
2019-03-09T08:11:51.111Z,20.31
2019-03-09T08:14:20.643Z,20.03
2019-03-09T08:16:50.244Z,19.59
2019-03-09T08:19:20.227Z,19.81
2019-03-09T08:21:49.800Z,20.16
2019-03-09T08:24:19.336Z,20.28
2019-03-09T08:26:48.884Z,20.34
2019-03-09T08:29:18.470Z,20.49
2019-03-09T08:31:48.035Z,20.88
2019-03-09T08:34:17.587Z,20.95
2019-03-09T08:36:47.277Z,21.08
2019-03-09T08:39:16.863Z,20.84
2019-03-09T08:41:46.426Z,20.73
2019-03-09T08:44:16.000Z,20.56
2019-03-09T08:46:45.524Z,20.83
2019-03-09T08:49:15.090Z,20.94
2019-03-09T08:51:44.676Z,21.03
2019-03-09T08:54:14.263Z,21.26
2019-03-09T08:56:43.936Z,21.33
2019-03-09T08:59:13.501Z,21.54
2019-03-09T09:01:43.084Z,21.89
2019-03-09T09:04:12.612Z,22.21
2019-03-09T09:06:42.175Z,21.79
2019-03-09T09:09:11.746Z,21.98
2019-03-09T09:11:41.306Z,22.08
2019-03-09T09:14:10.876Z,21.98
2019-03-09T09:16:40.452Z,22.56
2019-03-09T09:19:10.034Z,23.18
2019-03-09T09:21:48.434Z,23.60
2019-03-09T09:24:18.027Z,23.50
2019-03-09T09:26:47.622Z,23.78
2019-03-09T09:29:17.157Z,23.83
2019-03-09T09:31:46.701Z,23.34
2019-03-09T09:34:16.274Z,23.60
2019-03-09T09:36:45.915Z,23.70
2019-03-09T09:39:15.480Z,23.76
2019-03-09T09:41:45.041Z,23.72
2019-03-09T09:44:14.610Z,23.81
2019-03-09T09:46:44.166Z,23.94
2019-03-09T09:49:13.745Z,24.15
2019-03-09T09:51:43.270Z,24.29
2019-03-09T09:54:12.825Z,24.58
2019-03-09T09:56:42.378Z,24.73
2019-03-09T09:59:11.906Z,24.59
2019-03-09T10:01:41.423Z,24.77
2019-03-09T10:04:10.994Z,24.98
2019-03-09T10:06:40.541Z,25.13
2019-03-09T10:09:10.069Z,25.07
2019-03-09T10:11:39.606Z,25.23
2019-03-09T10:14:09.159Z,25.59
2019-03-09T10:16:38.696Z,25.49
2019-03-09T10:19:08.242Z,25.09
2019-03-09T10:21:37.794Z,25.09
2019-03-09T10:24:07.344Z,25.59
2019-03-09T10:26:36.916Z,26.06
2019-03-09T10:29:06.448Z,25.25
2019-03-09T10:31:36.061Z,24.75
2019-03-09T10:34:05.587Z,24.07
2019-03-09T10:36:35.131Z,23.45
2019-03-09T10:39:05.868Z,23.03
2019-03-09T10:41:35.434Z,22.86
2019-03-09T10:44:04.990Z,22.60
2019-03-09T10:46:34.563Z,22.80
2019-03-09T10:49:04.131Z,22.50
2019-03-09T10:51:33.702Z,22.44
2019-03-09T10:54:03.340Z,23.06
2019-03-09T10:56:32.923Z,23.38
2019-03-09T10:59:02.589Z,23.59
2019-03-09T11:01:32.276Z,24.39
2019-03-09T11:04:01.845Z,24.97
2019-03-09T11:06:31.479Z,24.90
2019-03-09T11:09:01.143Z,25.41
2019-03-09T11:11:30.803Z,25.61
2019-03-09T11:14:00.343Z,25.95
2019-03-09T11:16:29.914Z,26.09
2019-03-09T11:18:59.492Z,25.05
2019-03-09T11:21:29.161Z,25.09
2019-03-09T11:23:58.720Z,24.89
2019-03-09T11:26:28.256Z,24.22
2019-03-09T11:28:57.858Z,23.84
2019-03-09T11:31:27.475Z,23.93
2019-03-09T11:33:57.165Z,23.05
2019-03-09T11:36:26.721Z,22.70
2019-03-09T11:38:56.263Z,22.42
2019-03-09T11:41:25.836Z,21.82
2019-03-09T11:43:55.507Z,21.91
2019-03-09T11:46:25.241Z,21.70
2019-03-09T11:48:54.782Z,21.64
2019-03-09T11:51:24.442Z,21.80
2019-03-09T11:53:54.013Z,22.50
2019-03-09T11:56:23.570Z,23.47
2019-03-09T11:58:53.104Z,24.78
2019-03-09T12:01:22.790Z,24.52
2019-03-09T12:03:52.378Z,24.51
2019-03-09T12:06:21.998Z,24.61
2019-03-09T12:08:51.583Z,24.04
2019-03-09T12:11:21.313Z,24.51
2019-03-09T12:13:50.933Z,25.35
2019-03-09T12:16:20.704Z,25.63
2019-03-09T12:18:50.328Z,26.29
2019-03-09T12:21:19.981Z,26.92
2019-03-09T12:23:49.537Z,26.72
2019-03-09T12:26:19.449Z,27.06
2019-03-09T12:28:48.994Z,26.24
2019-03-09T12:31:18.686Z,26.94
2019-03-09T12:33:48.383Z,26.95
2019-03-09T12:36:18.032Z,26.38
2019-03-09T12:38:47.557Z,25.87
2019-03-09T12:41:17.222Z,25.40
2019-03-09T12:43:46.793Z,24.28
2019-03-09T12:46:16.433Z,23.98
2019-03-09T12:48:46.223Z,23.73
2019-03-09T12:51:15.934Z,23.45
2019-03-09T12:53:45.529Z,23.08
2019-03-09T12:56:15.083Z,22.81
2019-03-09T12:58:46.217Z,22.57
2019-03-09T13:01:16.098Z,22.48
2019-03-09T13:03:45.686Z,22.48
2019-03-09T13:06:15.219Z,22.35
2019-03-09T13:08:44.763Z,22.18
2019-03-09T13:11:14.433Z,22.07
2019-03-09T13:13:44.127Z,22.11
2019-03-09T13:16:13.689Z,22.02
2019-03-09T13:18:43.246Z,21.98
2019-03-09T13:21:12.804Z,21.98
2019-03-09T13:23:42.345Z,21.93
2019-03-09T13:26:11.934Z,21.96
2019-03-09T13:28:41.521Z,22.00
2019-03-09T13:31:11.210Z,22.01
2019-03-09T13:33:40.895Z,21.99
2019-03-09T13:36:10.498Z,21.95
2019-03-09T13:38:40.157Z,21.91
2019-03-09T13:41:09.949Z,21.90
2019-03-09T13:43:39.733Z,21.68
2019-03-09T13:46:09.266Z,21.69
2019-03-09T13:48:38.819Z,21.57
2019-03-09T13:51:08.377Z,21.43
2019-03-09T13:53:37.926Z,21.34
2019-03-09T13:56:07.479Z,21.33
2019-03-09T13:58:37.105Z,21.29
2019-03-09T14:01:06.656Z,21.20
2019-03-09T14:03:36.210Z,21.15
2019-03-09T14:06:05.748Z,21.10
2019-03-09T14:08:35.338Z,21.07
2019-03-09T14:11:04.936Z,20.99
2019-03-09T14:13:34.588Z,20.99
2019-03-09T14:16:04.148Z,20.97
2019-03-09T14:18:33.691Z,20.80
2019-03-09T14:21:03.222Z,20.78
2019-03-09T14:23:32.816Z,20.76
2019-03-09T14:26:02.409Z,20.76
2019-03-09T14:28:31.949Z,20.76
2019-03-09T14:31:01.532Z,20.79
2019-03-09T14:33:31.099Z,20.73
2019-03-09T14:36:00.729Z,20.71
2019-03-09T14:38:30.386Z,20.65
2019-03-09T14:40:59.995Z,20.64
2019-03-09T14:43:29.749Z,20.59
2019-03-09T14:45:59.439Z,20.61
2019-03-09T14:48:28.982Z,20.60
2019-03-09T14:50:58.523Z,20.62
2019-03-09T14:53:28.169Z,20.57
2019-03-09T14:55:57.745Z,20.61
2019-03-09T14:58:27.290Z,20.65
2019-03-09T15:00:56.821Z,20.67
2019-03-09T15:03:26.445Z,20.63
2019-03-09T15:05:55.993Z,20.55
2019-03-09T15:08:25.602Z,20.41
2019-03-09T15:10:55.218Z,20.24
2019-03-09T15:13:24.809Z,20.12
2019-03-09T15:15:54.393Z,19.97
2019-03-09T15:18:23.916Z,19.94
2019-03-09T15:20:53.473Z,19.86
2019-03-09T15:23:23.155Z,19.78
2019-03-09T15:25:52.726Z,19.70
2019-03-09T15:28:22.330Z,19.60
2019-03-09T15:30:51.963Z,19.43
2019-03-09T15:33:22.056Z,19.39
2019-03-09T15:35:51.755Z,19.26
2019-03-09T15:38:21.382Z,19.14
2019-03-09T15:40:51.019Z,19.05
2019-03-09T15:43:20.692Z,18.94
2019-03-09T15:45:50.368Z,18.79
2019-03-09T15:48:20.034Z,18.71
2019-03-09T15:50:49.576Z,18.58
2019-03-09T15:53:19.094Z,18.44
2019-03-09T15:55:48.770Z,18.31
2019-03-09T15:58:18.343Z,18.18
2019-03-09T16:00:47.992Z,18.07
2019-03-09T16:03:17.580Z,17.96
2019-03-09T16:05:47.225Z,17.83
2019-03-09T16:08:16.794Z,17.81
2019-03-09T16:10:46.598Z,17.74
2019-03-09T16:13:16.192Z,17.56
2019-03-09T16:15:45.899Z,17.44
2019-03-09T16:18:15.562Z,17.42
2019-03-09T16:20:45.090Z,17.31
2019-03-09T16:23:14.667Z,17.24
2019-03-09T16:25:44.285Z,17.06
2019-03-09T16:28:13.844Z,16.96
2019-03-09T16:30:43.590Z,16.81
2019-03-09T16:33:13.186Z,16.72
2019-03-09T16:35:42.731Z,16.60
2019-03-09T16:38:12.314Z,16.48
2019-03-09T16:40:41.884Z,16.41
2019-03-09T16:43:11.591Z,16.36
2019-03-09T16:45:41.409Z,16.21
2019-03-09T16:48:10.964Z,16.06
2019-03-09T16:50:40.655Z,15.97
2019-03-09T16:53:10.199Z,16.00
2019-03-09T16:55:39.749Z,15.94
2019-03-09T16:58:09.462Z,15.95
2019-03-09T17:00:38.987Z,15.89
2019-03-09T17:03:08.558Z,15.83
2019-03-09T17:05:38.116Z,15.86
2019-03-09T17:08:07.663Z,15.81
2019-03-09T17:10:37.239Z,15.80
2019-03-09T17:13:06.794Z,15.77
2019-03-09T17:15:36.358Z,15.74
2019-03-09T17:18:05.904Z,15.73
2019-03-09T17:20:35.495Z,15.62
2019-03-09T17:23:05.157Z,15.55
2019-03-09T17:25:34.719Z,15.55
2019-03-09T17:28:04.259Z,15.51
2019-03-09T17:30:34.265Z,15.53
2019-03-09T17:33:03.817Z,15.49
2019-03-09T17:35:33.718Z,15.46
2019-03-09T17:38:03.371Z,15.54
2019-03-09T17:40:33.107Z,15.49
2019-03-09T17:43:02.680Z,15.57
2019-03-09T17:45:32.321Z,15.45
2019-03-09T17:48:01.859Z,15.46
2019-03-09T17:50:31.660Z,15.39
2019-03-09T17:53:01.359Z,15.34
2019-03-09T17:55:31.140Z,15.33
2019-03-09T17:58:00.724Z,15.46
2019-03-09T18:00:41.817Z,15.50
2019-03-09T18:03:02.758Z,15.57
2019-03-09T18:05:32.342Z,15.65
2019-03-09T18:08:01.887Z,15.69
2019-03-09T18:10:35.381Z,15.65
2019-03-09T18:13:04.949Z,15.59
2019-03-09T18:15:34.509Z,15.57
2019-03-09T18:18:04.047Z,15.61
2019-03-09T18:20:33.634Z,15.61
2019-03-09T18:23:05.141Z,15.55
2019-03-09T18:25:35.017Z,15.47
2019-03-09T18:28:04.566Z,15.51
2019-03-09T18:30:37.902Z,15.45
2019-03-09T18:33:07.477Z,15.35
2019-03-09T18:35:38.962Z,15.30
2019-03-09T18:38:08.549Z,15.17
2019-03-09T18:40:39.430Z,15.08
2019-03-09T18:43:09.168Z,14.98
2019-03-09T18:45:38.890Z,14.95
2019-03-09T18:48:08.653Z,14.89
2019-03-09T18:50:38.254Z,14.85
2019-03-09T18:53:08.183Z,14.84
2019-03-09T18:55:38.074Z,14.78
2019-03-09T18:58:07.624Z,14.72
2019-03-09T19:00:37.259Z,14.64
2019-03-09T19:03:06.771Z,14.55
2019-03-09T19:05:36.415Z,14.49
2019-03-09T19:08:05.959Z,14.41
2019-03-09T19:10:35.536Z,14.33
2019-03-09T19:13:05.179Z,14.41
2019-03-09T19:15:34.735Z,14.36
2019-03-09T19:18:04.265Z,14.31
2019-03-09T19:20:33.803Z,14.28
2019-03-09T19:23:03.354Z,14.22
2019-03-09T19:25:33.008Z,14.18
2019-03-09T19:28:02.555Z,14.11
2019-03-09T19:30:32.208Z,14.01
2019-03-09T19:33:01.769Z,13.95
2019-03-09T19:35:31.325Z,13.88
2019-03-09T19:38:00.926Z,13.82
2019-03-09T19:40:30.573Z,13.73
2019-03-09T19:43:00.232Z,13.59
2019-03-09T19:45:29.784Z,13.47
2019-03-09T19:47:59.442Z,13.45
2019-03-09T19:50:29.029Z,13.46
2019-03-09T19:52:59.239Z,13.49
2019-03-09T19:55:29.060Z,13.58
2019-03-09T19:57:58.705Z,13.68
2019-03-09T20:00:28.307Z,13.78
2019-03-09T20:02:57.857Z,13.91
2019-03-09T20:05:27.455Z,14.00
2019-03-09T20:07:57.017Z,14.06
2019-03-09T20:10:26.599Z,14.20
2019-03-09T20:12:56.158Z,14.39
2019-03-09T20:15:25.763Z,14.51
2019-03-09T20:17:55.364Z,14.64
2019-03-09T20:20:24.956Z,14.81
2019-03-09T20:22:54.524Z,14.99
2019-03-09T20:25:24.262Z,15.01
2019-03-09T20:27:53.929Z,15.05
2019-03-09T20:30:23.600Z,15.15
2019-03-09T20:32:53.168Z,15.15
2019-03-09T20:35:22.724Z,15.11
2019-03-09T20:37:52.549Z,15.14
2019-03-09T20:40:22.474Z,15.11
2019-03-09T20:42:52.074Z,15.10
2019-03-09T20:45:21.754Z,15.13
2019-03-09T20:47:51.446Z,15.16
2019-03-09T20:50:22.456Z,15.14
2019-03-09T20:52:52.099Z,15.17
2019-03-09T20:55:22.360Z,15.23
2019-03-09T20:57:52.624Z,15.29
2019-03-09T21:00:22.276Z,15.35
2019-03-09T21:02:52.042Z,15.37
2019-03-09T21:05:22.619Z,15.43
2019-03-09T21:07:52.830Z,15.48
2019-03-09T21:10:23.066Z,15.55
2019-03-09T21:13:03.879Z,15.54
2019-03-09T21:15:33.427Z,15.54
2019-03-09T21:18:02.976Z,15.16
2019-03-09T21:20:32.508Z,14.66
2019-03-09T21:23:02.070Z,14.22
2019-03-09T21:25:31.663Z,13.86
2019-03-09T21:28:01.274Z,13.52
2019-03-09T21:30:30.792Z,13.36
2019-03-09T21:33:00.422Z,13.18
2019-03-09T21:35:30.077Z,13.04
2019-03-09T21:37:59.675Z,12.93
2019-03-09T21:40:29.237Z,12.91
2019-03-09T21:42:58.819Z,12.85
2019-03-09T21:45:28.460Z,12.85
2019-03-09T21:47:58.074Z,12.72
2019-03-09T21:50:27.639Z,12.70
2019-03-09T21:52:57.214Z,12.68
2019-03-09T21:55:26.764Z,12.55
2019-03-09T21:57:56.365Z,12.52
2019-03-09T22:00:26.011Z,12.46
2019-03-09T22:02:55.581Z,12.50
2019-03-09T22:05:25.220Z,12.50
2019-03-09T22:07:55.862Z,12.42
2019-03-09T22:10:25.672Z,12.40
2019-03-09T22:12:55.241Z,12.34
2019-03-09T22:15:24.885Z,12.27
2019-03-09T22:17:54.455Z,12.17
2019-03-09T22:20:24.092Z,12.13
2019-03-09T22:22:53.689Z,12.00
2019-03-09T22:25:23.292Z,11.90
2019-03-09T22:27:52.847Z,11.88
2019-03-09T22:30:22.420Z,11.92
2019-03-09T22:32:51.938Z,11.86
2019-03-09T22:35:21.518Z,11.99
2019-03-09T22:37:51.060Z,12.03
2019-03-09T22:40:20.707Z,12.06
2019-03-09T22:42:50.233Z,12.10
2019-03-09T22:45:19.775Z,12.12
2019-03-09T22:47:49.310Z,12.14
2019-03-09T22:50:18.902Z,12.24
2019-03-09T22:52:48.539Z,12.21
2019-03-09T22:55:18.078Z,12.22
2019-03-09T22:57:47.623Z,12.20
2019-03-09T23:00:18.083Z,12.27
2019-03-09T23:02:47.620Z,12.25
2019-03-09T23:05:17.291Z,12.21
2019-03-09T23:07:46.861Z,12.33
2019-03-09T23:10:16.923Z,12.45
2019-03-09T23:12:46.534Z,12.43
2019-03-09T23:15:16.428Z,12.45
2019-03-09T23:20:13.845Z,12.62
2019-03-09T23:22:43.370Z,12.67
2019-03-09T23:25:12.991Z,12.68
2019-03-09T23:27:42.540Z,12.78
2019-03-09T23:30:17.017Z,12.78
2019-03-09T23:32:46.547Z,12.83
2019-03-09T23:35:16.162Z,13.02
2019-03-09T23:37:45.773Z,13.00
2019-03-09T23:40:15.850Z,13.12
2019-03-09T23:42:45.393Z,13.04
2019-03-09T23:45:15.557Z,13.02
2019-03-09T23:47:45.134Z,12.94
2019-03-09T23:50:15.491Z,12.99
2019-03-09T23:52:45.042Z,12.96
2019-03-09T23:55:22.025Z,12.98
2019-03-09T23:57:45.882Z,12.99
